createdAt,value
2022-09-18T00:03:19.572Z,19.40
2022-09-18T00:11:29.293Z,19.00
2022-09-18T00:19:35.625Z,18.90
2022-09-18T00:27:43.574Z,19.00
2022-09-18T00:35:49.246Z,18.80
2022-09-18T00:43:58.874Z,18.50
2022-09-18T00:52:05.329Z,18.80
2022-09-18T01:00:14.937Z,18.80
2022-09-18T01:08:32.153Z,18.70
2022-09-18T01:16:45.053Z,18.70
2022-09-18T01:25:01.005Z,18.70
2022-09-18T01:33:13.111Z,18.80
2022-09-18T01:41:22.218Z,18.90
2022-09-18T01:49:36.458Z,18.70
2022-09-18T01:57:46.344Z,18.70
2022-09-18T02:05:59.837Z,18.90
2022-09-18T02:14:10.873Z,18.60
2022-09-18T02:22:40.434Z,18.70
2022-09-18T02:30:46.259Z,18.50
2022-09-18T02:39:08.057Z,18.20
2022-09-18T02:47:27.937Z,18.20
2022-09-18T02:55:44.985Z,17.90
2022-09-18T03:03:52.001Z,17.80
2022-09-18T03:12:05.752Z,17.60
2022-09-18T03:20:16.489Z,17.30
2022-09-18T03:28:24.855Z,17.10
2022-09-18T03:36:31.611Z,16.90
2022-09-18T03:44:40.526Z,17.00
2022-09-18T03:52:56.033Z,17.20
2022-09-18T04:01:17.062Z,17.30
2022-09-18T04:09:48.724Z,17.00
2022-09-18T04:17:59.052Z,17.10
2022-09-18T04:26:09.508Z,16.80
2022-09-18T04:34:23.630Z,16.50
2022-09-18T04:42:29.018Z,16.10
2022-09-18T04:50:37.194Z,15.80
2022-09-18T04:58:53.067Z,15.90
2022-09-18T05:07:01.694Z,15.90
2022-09-18T05:15:07.951Z,16.00
2022-09-18T05:23:18.092Z,16.10
2022-09-18T05:31:23.965Z,15.70
2022-09-18T05:39:32.207Z,16.00
2022-09-18T05:47:40.314Z,16.10
2022-09-18T05:55:49.867Z,16.40
2022-09-18T06:03:55.723Z,16.20
2022-09-18T06:12:05.285Z,16.40
2022-09-18T06:20:13.826Z,16.80
2022-09-18T06:28:22.239Z,16.80
2022-09-18T06:36:27.904Z,16.40
2022-09-18T06:44:43.887Z,16.50
2022-09-18T06:52:49.257Z,16.40
2022-09-18T07:00:57.298Z,17.00
2022-09-18T07:09:08.108Z,17.60
2022-09-18T07:17:36.759Z,17.10
2022-09-18T07:25:42.271Z,17.60
2022-09-18T07:33:54.134Z,17.10
2022-09-18T07:42:06.925Z,16.80
2022-09-18T07:50:17.557Z,18.20
2022-09-18T07:58:22.949Z,19.10
2022-09-18T08:06:55.171Z,19.50
2022-09-18T08:15:19.326Z,20.00
2022-09-18T08:24:06.225Z,20.10
2022-09-18T08:32:11.559Z,20.20
2022-09-18T08:40:20.975Z,20.10
2022-09-18T08:48:34.310Z,19.70
2022-09-18T08:56:43.196Z,19.80
2022-09-18T09:05:06.922Z,20.10
2022-09-18T09:13:40.387Z,20.30
2022-09-18T09:21:57.963Z,21.00
2022-09-18T09:30:14.609Z,20.20
2022-09-18T09:38:53.306Z,20.40
2022-09-18T09:47:11.136Z,20.90
2022-09-18T09:55:30.171Z,20.90
2022-09-18T10:03:49.449Z,21.70
2022-09-18T10:12:05.515Z,25.00
2022-09-18T10:20:19.326Z,32.40
2022-09-18T10:28:25.942Z,37.80
2022-09-18T10:36:38.914Z,38.70
2022-09-18T10:44:57.875Z,36.10
2022-09-18T10:53:32.658Z,38.00
2022-09-18T11:01:46.385Z,40.00
2022-09-18T11:09:54.652Z,40.40
2022-09-18T11:18:02.939Z,42.50
2022-09-18T11:26:21.556Z,44.50
2022-09-18T11:34:32.120Z,45.80
2022-09-18T11:42:45.110Z,46.10
2022-09-18T11:50:53.564Z,45.90
2022-09-18T11:59:07.690Z,41.00
2022-09-18T12:07:38.249Z,42.10
2022-09-18T12:15:52.686Z,36.90
2022-09-18T12:23:58.463Z,29.40
2022-09-18T12:32:24.118Z,25.90
2022-09-18T12:40:45.956Z,24.10
2022-09-18T12:49:08.444Z,23.10
2022-09-18T12:57:30.411Z,22.30
2022-09-18T13:05:41.248Z,21.80
2022-09-18T13:13:52.107Z,21.30
2022-09-18T13:22:07.305Z,21.10
2022-09-18T13:30:25.850Z,20.50
2022-09-18T13:38:36.453Z,20.40
2022-09-18T13:46:45.048Z,19.80
2022-09-18T13:55:28.136Z,19.90
2022-09-18T14:03:40.140Z,20.10
2022-09-18T14:11:48.090Z,19.90
2022-09-18T14:20:06.197Z,19.60
2022-09-18T14:28:16.583Z,19.00
2022-09-18T14:36:21.905Z,19.00
2022-09-18T14:44:32.509Z,18.60
2022-09-18T14:52:46.093Z,18.60
2022-09-18T15:00:57.375Z,18.60
2022-09-18T15:09:03.973Z,18.30
2022-09-18T15:17:20.967Z,18.20
2022-09-18T15:25:30.872Z,18.30
2022-09-18T15:33:40.473Z,18.50
2022-09-18T15:41:47.934Z,18.40
2022-09-18T15:49:56.111Z,18.40
2022-09-18T15:58:03.929Z,18.30
2022-09-18T16:06:24.086Z,18.60
2022-09-18T16:14:44.143Z,18.70
2022-09-18T16:22:53.134Z,18.70
2022-09-18T16:30:58.549Z,18.50
2022-09-18T16:39:09.544Z,18.50
2022-09-18T16:47:16.320Z,18.20
2022-09-18T16:55:24.904Z,17.90
2022-09-18T17:03:30.858Z,17.70
2022-09-18T17:11:39.105Z,17.70
2022-09-18T17:19:44.458Z,17.50
2022-09-18T17:27:53.946Z,17.70
2022-09-18T17:35:59.225Z,17.70
2022-09-18T17:44:07.713Z,17.60
2022-09-18T17:52:13.104Z,17.70
2022-09-18T18:00:21.995Z,17.70
2022-09-18T18:08:28.196Z,17.80
2022-09-18T18:16:37.144Z,17.70
2022-09-18T18:24:42.617Z,17.70
2022-09-18T18:32:51.789Z,17.60
2022-09-18T18:41:03.744Z,17.40
2022-09-18T18:49:19.089Z,17.30
2022-09-18T18:57:24.522Z,17.20
2022-09-18T19:05:33.142Z,17.00
2022-09-18T19:13:41.513Z,17.00
2022-09-18T19:21:49.457Z,17.20
2022-09-18T19:29:54.720Z,17.30
2022-09-18T19:38:02.729Z,17.50
2022-09-18T19:46:10.590Z,17.70
2022-09-18T19:54:19.529Z,17.80
2022-09-18T20:02:25.957Z,17.80
2022-09-18T20:10:33.853Z,17.90
2022-09-18T20:18:39.690Z,17.90
2022-09-18T20:26:48.083Z,17.80
2022-09-18T20:34:53.994Z,17.40
2022-09-18T20:43:04.453Z,17.20
2022-09-18T20:51:11.177Z,17.20
2022-09-18T20:59:21.076Z,17.00
2022-09-18T21:07:26.372Z,16.90
2022-09-18T21:15:35.073Z,17.00
2022-09-18T21:23:53.411Z,16.40
2022-09-18T21:32:03.268Z,16.40
2022-09-18T21:40:09.829Z,15.80
2022-09-18T21:48:18.079Z,15.70
2022-09-18T21:56:23.704Z,16.00
2022-09-18T22:04:34.154Z,15.80
2022-09-18T22:12:39.571Z,15.60
2022-09-18T22:20:47.502Z,15.70
2022-09-18T22:28:56.652Z,15.70
2022-09-18T22:37:05.572Z,15.60
2022-09-18T22:45:11.994Z,15.60
2022-09-18T22:53:19.870Z,15.20
2022-09-18T23:01:28.401Z,15.30
2022-09-18T23:09:36.269Z,15.40
2022-09-18T23:17:44.226Z,15.30
2022-09-18T23:25:52.168Z,15.30
2022-09-18T23:33:58.877Z,15.30
2022-09-18T23:42:09.025Z,15.40
2022-09-18T23:50:14.389Z,15.50
2022-09-18T23:58:22.371Z,15.60
